Time;durP1;ratioP1;P1;durP2;ratioP2;P2;SDS_P1;SDS_P2;PMS_P1;PMS_P2;Temp;Humidity;BMP_temperature;BMP_pressure;BME280_temperature;BME280_humidity;BME280_pressure;Samples;Min_cycle;Max_cycle;Signal;HPM_P1;HPM_P2
2022/04/28 00:00:50;;;;;;;1.10;1.10;;;10.50;99.90;;;;;;5055009;28;20235;-68
2022/04/28 00:03:18;;;;;;;1.43;1.33;;;10.40;99.90;;;;;;5051129;28;20744;-67
2022/04/28 00:05:45;;;;;;;1.20;1.20;;;10.30;99.90;;;;;;5054985;28;20243;-69
2022/04/28 00:08:12;;;;;;;1.20;1.20;;;10.20;99.90;;;;;;5051709;28;20570;-67
2022/04/28 00:10:40;;;;;;;1.33;1.20;;;10.30;99.90;;;;;;5051932;28;20724;-68
2022/04/28 00:13:08;;;;;;;1.10;1.10;;;10.40;99.90;;;;;;5058083;28;20266;-70
2022/04/28 00:15:35;;;;;;;1.00;1.00;;;10.20;99.90;;;;;;5058091;28;20223;-68
2022/04/28 00:18:03;;;;;;;1.10;1.10;;;10.20;99.90;;;;;;5056303;28;20230;-67
2022/04/28 00:20:31;;;;;;;1.33;1.33;;;10.20;99.90;;;;;;5052906;28;20240;-69
2022/04/28 00:22:58;;;;;;;1.10;1.10;;;10.40;99.90;;;;;;5063118;28;20656;-66
2022/04/28 00:25:26;;;;;;;1.33;1.10;;;10.40;99.90;;;;;;5056324;28;20214;-67
2022/04/28 00:27:54;;;;;;;0.90;0.90;;;10.50;99.90;;;;;;5064325;28;20238;-67
2022/04/28 00:30:21;;;;;;;1.13;1.13;;;10.30;99.90;;;;;;5057000;28;20274;-69
2022/04/28 00:32:48;;;;;;;1.10;1.10;;;10.30;99.90;;;;;;5052441;28;20227;-67
2022/04/28 00:35:15;;;;;;;1.00;1.00;;;10.20;99.90;;;;;;5051566;28;20292;-67
2022/04/28 00:37:44;;;;;;;1.00;1.00;;;10.20;99.90;;;;;;5057099;28;20219;-72
2022/04/28 00:40:12;;;;;;;1.20;1.20;;;10.20;99.90;;;;;;5065104;28;20897;-68
2022/04/28 00:42:39;;;;;;;1.10;1.10;;;10.10;99.90;;;;;;5037359;28;20207;-67
2022/04/28 00:45:07;;;;;;;1.00;1.00;;;10.20;99.90;;;;;;5031780;28;20801;-66
2022/04/28 00:53:08;;;;;;;1.10;1.10;;;10.20;99.90;;;;;;5054665;28;20203;-68
2022/04/28 00:55:36;;;;;;;1.10;1.10;;;10.40;99.90;;;;;;5056048;28;20299;-68
2022/04/28 00:58:03;;;;;;;1.20;1.20;;;10.20;99.90;;;;;;4962215;28;20500;-71
2022/04/28 01:00:30;;;;;;;1.20;1.20;;;10.20;99.90;;;;;;4946088;28;20227;-69
2022/04/28 01:02:57;;;;;;;1.10;1.10;;;10.20;99.90;;;;;;5065742;28;20239;-70
2022/04/28 01:05:26;;;;;;;1.20;1.20;;;10.10;99.90;;;;;;5057753;28;20288;-68
2022/04/28 01:07:53;;;;;;;1.10;1.10;;;10.10;99.90;;;;;;5058985;28;20211;-68
2022/04/28 01:10:22;;;;;;;1.13;1.13;;;10.10;99.90;;;;;;5055314;28;20224;-69
2022/04/28 01:12:49;;;;;;;1.00;1.00;;;10.10;99.90;;;;;;5056931;28;20232;-69
2022/04/28 01:15:16;;;;;;;1.10;1.10;;;10.10;99.90;;;;;;5049116;28;20212;-70
2022/04/28 01:17:43;;;;;;;1.00;1.00;;;10.00;99.90;;;;;;5049153;28;20230;-68
2022/04/28 01:20:11;;;;;;;1.10;1.10;;;9.90;99.90;;;;;;5050259;28;20310;-68
2022/04/28 01:22:40;;;;;;;1.10;1.10;;;9.80;99.90;;;;;;5050399;28;20283;-67
2022/04/28 01:25:08;;;;;;;1.00;1.00;;;9.90;99.90;;;;;;5052368;28;20195;-67
2022/04/28 01:27:36;;;;;;;1.30;1.20;;;9.90;99.90;;;;;;5070451;28;20557;-67
2022/04/28 01:30:04;;;;;;;1.00;1.00;;;9.90;99.90;;;;;;5047173;28;20259;-68
2022/04/28 01:32:31;;;;;;;1.10;1.10;;;9.90;99.90;;;;;;5032434;28;20240;-69
2022/04/28 01:34:59;;;;;;;1.03;1.03;;;9.90;99.90;;;;;;5046458;28;20271;-68
2022/04/28 01:37:26;;;;;;;1.10;1.10;;;9.90;99.90;;;;;;5062157;28;20571;-68
2022/04/28 01:39:56;;;;;;;1.13;1.13;;;9.90;99.90;;;;;;5046298;28;20330;-70
2022/04/28 01:42:22;;;;;;;1.17;1.17;;;9.80;99.90;;;;;;5051670;28;20211;-67
2022/04/28 01:44:49;;;;;;;1.30;1.30;;;9.80;99.90;;;;;;5047302;28;20398;-68
2022/04/28 01:47:16;;;;;;;1.20;1.20;;;9.80;99.90;;;;;;5047001;28;20290;-69
2022/04/28 01:49:43;;;;;;;1.10;1.10;;;9.70;99.90;;;;;;5050945;28;20211;-68
2022/04/28 01:54:59;;;;;;;1.10;1.10;;;9.60;99.90;;;;;;5053945;28;20202;-66
2022/04/28 01:57:27;;;;;;;1.10;1.10;;;9.60;99.90;;;;;;5054234;28;20274;-68
2022/04/28 01:59:55;;;;;;;1.00;1.00;;;9.50;99.90;;;;;;5054070;28;20223;-67
2022/04/28 02:02:22;;;;;;;1.13;1.13;;;9.60;99.90;;;;;;5064835;22;20315;-63
2022/04/28 02:04:50;;;;;;;1.10;1.10;;;9.60;99.90;;;;;;5051656;28;20330;-64
2022/04/28 02:07:17;;;;;;;1.10;1.10;;;9.70;99.90;;;;;;5055670;28;20235;-64
2022/04/28 02:09:45;;;;;;;1.00;1.00;;;9.70;99.90;;;;;;5054517;28;20561;-65
2022/04/28 02:12:14;;;;;;;1.07;1.07;;;9.70;99.90;;;;;;5056030;28;20227;-64
2022/04/28 02:14:41;;;;;;;1.20;1.20;;;9.60;99.90;;;;;;5055364;28;20203;-63
2022/04/28 02:17:08;;;;;;;1.20;1.10;;;9.50;99.90;;;;;;5055745;28;20231;-64
2022/04/28 02:19:35;;;;;;;1.07;1.07;;;9.50;99.90;;;;;;5055443;28;20207;-64
2022/04/28 02:22:03;;;;;;;1.30;1.30;;;9.40;99.90;;;;;;5056188;28;20227;-62
2022/04/28 02:24:30;;;;;;;1.03;1.03;;;9.40;99.90;;;;;;5060582;28;20235;-63
2022/04/28 02:26:57;;;;;;;1.23;1.23;;;9.40;99.90;;;;;;5069112;28;20204;-64
2022/04/28 02:29:25;;;;;;;1.20;1.20;;;9.40;99.90;;;;;;5068888;28;20243;-64
2022/04/28 02:31:52;;;;;;;1.10;1.10;;;9.20;99.90;;;;;;5068388;28;20662;-63
2022/04/28 02:34:19;;;;;;;1.10;1.10;;;9.20;99.90;;;;;;5061180;28;20277;-64
2022/04/28 02:36:46;;;;;;;1.03;1.03;;;9.20;99.90;;;;;;5062015;28;20204;-64
2022/04/28 02:39:14;;;;;;;1.07;1.07;;;9.30;99.90;;;;;;5069238;28;20733;-63
2022/04/28 02:41:41;;;;;;;1.00;1.00;;;9.30;99.90;;;;;;5069894;28;20207;-66
2022/04/28 02:44:08;;;;;;;1.27;1.27;;;9.30;99.90;;;;;;5069246;28;20764;-63
2022/04/28 02:46:37;;;;;;;1.00;1.00;;;9.40;99.90;;;;;;5069343;28;20278;-63
2022/04/28 02:49:04;;;;;;;0.97;0.97;;;9.40;99.90;;;;;;5069058;28;20231;-65
2022/04/28 02:51:31;;;;;;;1.10;1.10;;;9.40;99.90;;;;;;5058379;28;20208;-68
2022/04/28 02:53:58;;;;;;;1.20;1.20;;;9.30;99.90;;;;;;5057816;28;20250;-63
2022/04/28 02:56:25;;;;;;;1.10;1.10;;;9.10;99.90;;;;;;5056451;28;20287;-65
2022/04/28 02:58:53;;;;;;;1.20;1.20;;;9.10;99.90;;;;;;5056468;28;20234;-63
2022/04/28 03:01:20;;;;;;;0.93;0.93;;;9.10;99.90;;;;;;5060333;28;20226;-64
2022/04/28 03:03:49;;;;;;;1.10;1.10;;;9.00;99.90;;;;;;5059421;28;20235;-65
2022/04/28 03:11:44;;;;;;;1.80;1.10;;;9.00;99.90;;;;;;5057863;28;20214;-63
2022/04/28 03:14:12;;;;;;;1.00;1.00;;;9.00;99.90;;;;;;5057950;28;20232;-63
2022/04/28 03:16:39;;;;;;;1.00;1.00;;;9.00;99.90;;;;;;5059612;28;20204;-64
2022/04/28 03:19:07;;;;;;;1.10;1.00;;;9.10;99.90;;;;;;5059730;28;20242;-63
2022/04/28 03:21:35;;;;;;;1.10;1.10;;;9.00;99.90;;;;;;5057519;28;20242;-65
2022/04/28 03:24:02;;;;;;;1.00;1.00;;;9.10;99.90;;;;;;5057510;28;20235;-64
2022/04/28 03:26:29;;;;;;;1.10;1.10;;;9.10;99.90;;;;;;5060026;28;20204;-64
2022/04/28 03:28:56;;;;;;;1.13;1.13;;;9.00;99.90;;;;;;5057193;28;20200;-64
2022/04/28 03:31:24;;;;;;;1.17;1.17;;;9.00;99.90;;;;;;5057523;28;20240;-64
2022/04/28 03:33:52;;;;;;;1.10;1.10;;;8.90;99.90;;;;;;5054602;28;20307;-65
2022/04/28 03:39:04;;;;;;;0.90;0.90;;;8.90;99.90;;;;;;5056761;28;20317;-63
2022/04/28 03:41:31;;;;;;;1.20;1.20;;;8.90;99.90;;;;;;5057171;28;20203;-63
2022/04/28 03:43:58;;;;;;;1.17;1.17;;;8.90;99.90;;;;;;5054790;28;20223;-63
2022/04/28 03:46:25;;;;;;;1.00;1.00;;;8.90;99.90;;;;;;5055201;28;20262;-64
2022/04/28 03:48:51;;;;;;;1.20;1.20;;;9.00;99.90;;;;;;5054095;28;20204;-63
2022/04/28 03:51:20;;;;;;;1.20;1.20;;;9.00;99.90;;;;;;5055443;28;20200;-64
2022/04/28 03:53:47;;;;;;;1.03;1.03;;;8.90;99.90;;;;;;5059815;28;20224;-64
2022/04/28 03:56:14;;;;;;;1.20;1.20;;;8.90;99.90;;;;;;5065470;28;20208;-64
2022/04/28 03:58:40;;;;;;;1.10;1.10;;;8.70;99.90;;;;;;5061296;28;20248;-64
2022/04/28 04:01:07;;;;;;;1.20;1.20;;;8.70;99.90;;;;;;5061434;28;20215;-63
2022/04/28 04:03:34;;;;;;;1.20;1.20;;;8.70;99.90;;;;;;5056571;28;20267;-62
2022/04/28 04:06:01;;;;;;;1.20;1.20;;;8.70;99.90;;;;;;5054332;28;20291;-63
2022/04/28 04:08:29;;;;;;;1.43;1.43;;;8.60;99.90;;;;;;5052899;28;20744;-63
2022/04/28 04:10:56;;;;;;;1.07;1.07;;;8.50;99.90;;;;;;5053445;28;20278;-65
2022/04/28 04:13:23;;;;;;;1.37;1.37;;;8.50;99.90;;;;;;5053074;28;20737;-63
2022/04/28 04:15:50;;;;;;;1.20;1.20;;;8.60;99.90;;;;;;5054023;28;20748;-63
2022/04/28 04:18:18;;;;;;;1.43;1.20;;;8.60;99.90;;;;;;5052995;28;20228;-63
2022/04/28 04:20:45;;;;;;;1.20;1.20;;;8.60;99.90;;;;;;5053570;28;20207;-63
2022/04/28 04:23:11;;;;;;;1.10;1.10;;;8.60;99.90;;;;;;5053636;28;20262;-65
2022/04/28 04:25:40;;;;;;;1.30;1.30;;;8.60;99.90;;;;;;5053705;28;20211;-62
2022/04/28 04:28:06;;;;;;;1.20;1.20;;;8.70;99.90;;;;;;5052995;28;20200;-64
2022/04/28 04:33:18;;;;;;;1.10;1.10;;;8.70;99.90;;;;;;5053362;28;20293;-63
2022/04/28 04:35:45;;;;;;;1.10;1.10;;;8.70;99.90;;;;;;5053098;28;20250;-63
2022/04/28 04:38:12;;;;;;;1.37;1.30;;;8.70;99.90;;;;;;5052854;28;20286;-64
2022/04/28 04:40:40;;;;;;;1.10;1.10;;;8.70;99.90;;;;;;5053054;28;20200;-63
2022/04/28 04:43:13;;;;;;;1.10;1.10;;;8.60;99.90;;;;;;5053351;28;20281;-62
2022/04/28 04:45:42;;;;;;;0.90;0.90;;;8.70;99.90;;;;;;5052704;28;20212;-63
2022/04/28 04:48:09;;;;;;;1.00;1.00;;;8.60;99.90;;;;;;5053418;28;20208;-65
2022/04/28 04:50:37;;;;;;;1.17;1.17;;;8.60;99.90;;;;;;5051340;28;20261;-62
2022/04/28 04:53:05;;;;;;;1.00;1.00;;;8.60;99.90;;;;;;5056861;28;20232;-63
2022/04/28 04:55:32;;;;;;;1.00;1.00;;;8.60;99.90;;;;;;5058461;28;20291;-62
2022/04/28 04:58:00;;;;;;;1.00;1.00;;;8.60;99.90;;;;;;5053972;28;20222;-64
2022/04/28 05:00:27;;;;;;;1.00;1.00;;;8.60;99.90;;;;;;5054230;28;20290;-64
2022/04/28 05:02:54;;;;;;;1.00;1.00;;;8.60;99.90;;;;;;5038602;28;20266;-64
2022/04/28 05:05:21;;;;;;;1.20;1.20;;;8.50;99.90;;;;;;5056273;28;20224;-64
2022/04/28 05:07:48;;;;;;;1.58;1.50;;;8.50;99.90;;;;;;5052703;28;20678;-63
2022/04/28 05:10:15;;;;;;;1.60;1.50;;;8.40;99.90;;;;;;5052099;28;20658;-65
2022/04/28 05:12:41;;;;;;;1.10;1.10;;;8.40;99.90;;;;;;5053039;28;20266;-64
2022/04/28 05:15:10;;;;;;;1.40;1.40;;;8.60;99.90;;;;;;5054551;28;20379;-64
2022/04/28 05:17:37;;;;;;;1.70;1.60;;;8.80;99.90;;;;;;5056532;28;20204;-65
2022/04/28 05:20:06;;;;;;;1.63;1.53;;;8.90;99.90;;;;;;5057606;28;20212;-64
2022/04/28 05:22:33;;;;;;;1.87;1.60;;;8.90;99.90;;;;;;5054907;28;20269;-63
2022/04/28 05:25:00;;;;;;;1.60;1.50;;;8.90;99.90;;;;;;5055978;28;20196;-64
2022/04/28 05:27:27;;;;;;;1.80;1.70;;;9.00;99.90;;;;;;5049940;28;20235;-66
2022/04/28 05:29:54;;;;;;;1.80;1.70;;;9.10;99.90;;;;;;5052987;28;20287;-63
2022/04/28 05:32:22;;;;;;;1.60;1.60;;;9.30;99.90;;;;;;5060054;28;20303;-63
2022/04/28 05:34:49;;;;;;;1.77;1.67;;;9.40;99.90;;;;;;5057716;28;20268;-64
2022/04/28 05:37:16;;;;;;;2.13;1.53;;;9.30;99.90;;;;;;5051671;28;20203;-65
2022/04/28 05:39:44;;;;;;;1.70;1.60;;;9.40;99.90;;;;;;5068239;28;20314;-63
2022/04/28 05:42:11;;;;;;;1.53;1.50;;;9.60;99.90;;;;;;5058281;28;20334;-64
2022/04/28 05:47:24;;;;;;;1.50;1.40;;;10.00;99.90;;;;;;5054372;28;20540;-63
2022/04/28 05:49:52;;;;;;;1.43;1.40;;;10.20;99.90;;;;;;5044013;28;20205;-63
2022/04/28 05:52:19;;;;;;;1.50;1.50;;;10.30;99.90;;;;;;5049780;28;20311;-66
2022/04/28 05:54:45;;;;;;;1.73;1.63;;;10.40;99.90;;;;;;5050706;28;20235;-63
2022/04/28 05:57:12;;;;;;;1.53;1.50;;;10.50;99.90;;;;;;5049982;28;20235;-64
2022/04/28 05:59:39;;;;;;;1.60;1.50;;;10.50;99.90;;;;;;5058966;28;20315;-65
2022/04/28 06:02:07;;;;;;;1.73;1.63;;;10.50;99.90;;;;;;5039668;28;20824;-66
2022/04/28 06:04:35;;;;;;;1.70;1.60;;;10.60;99.90;;;;;;5045854;28;20231;-64
2022/04/28 06:07:02;;;;;;;1.70;1.60;;;10.70;99.90;;;;;;5057482;28;20231;-64
2022/04/28 06:09:29;;;;;;;1.50;1.50;;;10.70;99.90;;;;;;5049802;28;20196;-64
2022/04/28 06:11:56;;;;;;;1.50;1.40;;;10.80;99.90;;;;;;5052868;28;20252;-63
2022/04/28 06:14:23;;;;;;;1.70;1.60;;;10.90;99.90;;;;;;5054187;28;20200;-66
2022/04/28 06:16:50;;;;;;;1.50;1.50;;;11.00;99.90;;;;;;5055979;28;20579;-63
2022/04/28 06:19:18;;;;;;;1.70;1.30;;;11.20;99.90;;;;;;5054591;28;20277;-64
2022/04/28 06:21:46;;;;;;;1.70;1.70;;;11.30;99.90;;;;;;5041178;28;20207;-66
2022/04/28 06:24:13;;;;;;;1.43;1.43;;;11.40;99.90;;;;;;5047154;28;20192;-64
2022/04/28 06:26:40;;;;;;;1.70;1.60;;;11.40;99.90;;;;;;5062330;28;20204;-64
2022/04/28 06:29:07;;;;;;;1.73;1.63;;;11.50;99.90;;;;;;5057973;28;20203;-64
2022/04/28 06:31:34;;;;;;;1.60;1.60;;;11.60;99.90;;;;;;5058440;28;20238;-65
2022/04/28 06:34:01;;;;;;;1.53;1.53;;;11.60;99.90;;;;;;5060827;28;20204;-66
2022/04/28 06:36:28;;;;;;;1.60;1.60;;;11.70;99.90;;;;;;5063787;28;20221;-64
2022/04/28 06:38:56;;;;;;;1.70;1.60;;;11.80;99.90;;;;;;5061279;28;20216;-64
2022/04/28 06:41:23;;;;;;;1.73;1.63;;;11.90;99.90;;;;;;5058924;28;20204;-65
2022/04/28 06:43:50;;;;;;;1.70;1.60;;;12.10;99.90;;;;;;5055373;28;20259;-64
2022/04/28 06:46:17;;;;;;;2.17;2.07;;;12.30;99.90;;;;;;5056130;28;20283;-64
2022/04/28 06:48:43;;;;;;;1.80;1.70;;;12.40;99.90;;;;;;5055697;28;20227;-65
2022/04/28 06:51:10;;;;;;;1.57;1.57;;;12.50;99.90;;;;;;5057037;28;20638;-65
2022/04/28 06:53:38;;;;;;;1.80;1.70;;;12.60;99.90;;;;;;5057717;28;20223;-64
2022/04/28 06:56:07;;;;;;;1.90;1.80;;;12.80;99.90;;;;;;5058097;28;20208;-62
2022/04/28 06:58:35;;;;;;;1.90;1.80;;;12.90;99.90;;;;;;5056589;28;20328;-64
2022/04/28 07:01:02;;;;;;;1.90;1.80;;;13.10;99.90;;;;;;5056564;28;20203;-66
2022/04/28 07:03:29;;;;;;;1.90;1.80;;;13.10;99.90;;;;;;5055423;28;20263;-65
2022/04/28 07:05:56;;;;;;;1.90;1.80;;;13.20;99.90;;;;;;5054506;28;20218;-64
2022/04/28 07:08:23;;;;;;;1.63;1.60;;;13.30;99.90;;;;;;5053729;28;20242;-64
2022/04/28 07:10:50;;;;;;;1.50;1.50;;;13.40;99.90;;;;;;5054538;28;20212;-66
2022/04/28 07:13:18;;;;;;;1.80;1.70;;;13.40;99.90;;;;;;5053592;28;20226;-65
2022/04/28 07:15:45;;;;;;;1.60;1.50;;;13.60;99.90;;;;;;5054683;28;20200;-65
2022/04/28 07:18:12;;;;;;;1.60;1.50;;;13.60;99.90;;;;;;5053525;28;20303;-64
2022/04/28 07:20:40;;;;;;;1.30;1.30;;;13.80;99.90;;;;;;5057522;28;20235;-64
2022/04/28 07:23:06;;;;;;;1.50;1.50;;;14.00;99.90;;;;;;5055378;28;20228;-66
2022/04/28 07:25:34;;;;;;;1.37;1.37;;;14.10;99.90;;;;;;5053730;28;20254;-65
2022/04/28 07:28:01;;;;;;;1.40;1.40;;;14.30;99.90;;;;;;5053460;28;20203;-64
2022/04/28 07:30:29;;;;;;;1.30;1.20;;;14.40;99.90;;;;;;5053837;28;20674;-63
2022/04/28 07:32:56;;;;;;;1.40;1.40;;;14.60;99.90;;;;;;5053910;28;20263;-66
2022/04/28 07:35:25;;;;;;;1.20;1.20;;;14.60;99.90;;;;;;5053854;28;20591;-65
2022/04/28 07:37:52;;;;;;;1.60;1.50;;;14.60;99.90;;;;;;5053236;28;20204;-63
2022/04/28 07:40:19;;;;;;;1.30;1.30;;;14.70;99.90;;;;;;5054902;28;20269;-64
2022/04/28 07:42:46;;;;;;;1.33;1.23;;;14.90;99.90;;;;;;5055255;28;20257;-65
2022/04/28 07:45:14;;;;;;;1.20;1.20;;;15.20;99.90;;;;;;5055499;28;20291;-63
2022/04/28 07:47:42;;;;;;;1.00;1.00;;;15.40;99.90;;;;;;5054883;28;20596;-64
2022/04/28 07:50:10;;;;;;;1.10;1.10;;;15.50;99.90;;;;;;5054327;28;20253;-64
2022/04/28 07:52:38;;;;;;;1.03;1.03;;;15.70;99.90;;;;;;5053976;28;20235;-65
2022/04/28 07:55:06;;;;;;;1.33;1.00;;;15.90;99.90;;;;;;5053280;28;20215;-62
2022/04/28 07:57:33;;;;;;;0.90;0.90;;;16.00;99.90;;;;;;5054012;28;20203;-63
2022/04/28 08:00:00;;;;;;;1.10;1.10;;;16.20;99.90;;;;;;5053474;28;20269;-64
2022/04/28 08:02:29;;;;;;;1.07;1.07;;;16.40;99.90;;;;;;5077579;22;20239;-62
2022/04/28 08:04:57;;;;;;;0.93;0.93;;;16.60;99.90;;;;;;5042364;28;20220;-62
2022/04/28 08:07:24;;;;;;;1.03;1.03;;;16.90;99.90;;;;;;5053134;28;21049;-62
2022/04/28 08:09:51;;;;;;;0.90;0.90;;;17.00;99.90;;;;;;5053075;28;20196;-61
2022/04/28 08:12:18;;;;;;;0.93;0.93;;;17.20;99.90;;;;;;5053620;28;20214;-61
2022/04/28 08:14:45;;;;;;;0.80;0.80;;;17.20;99.90;;;;;;5053612;28;20234;-63
2022/04/28 08:17:12;;;;;;;0.80;0.80;;;17.40;99.90;;;;;;5069832;22;20230;-62
2022/04/28 08:19:39;;;;;;;1.00;1.00;;;17.60;99.90;;;;;;5072040;28;20652;-62
2022/04/28 08:22:08;;;;;;;1.00;1.00;;;17.60;99.90;;;;;;5072823;28;20720;-62
2022/04/28 08:24:34;;;;;;;1.10;1.10;;;17.80;99.90;;;;;;5072969;28;20314;-62
2022/04/28 08:27:01;;;;;;;1.00;1.00;;;17.90;99.90;;;;;;5073181;28;20280;-62
2022/04/28 08:29:28;;;;;;;1.10;1.10;;;17.90;99.90;;;;;;5072289;28;20616;-64
2022/04/28 08:31:55;;;;;;;1.37;1.20;;;17.90;99.90;;;;;;5072920;28;20295;-65
2022/04/28 08:34:22;;;;;;;0.90;0.90;;;17.90;99.90;;;;;;5072197;28;20227;-67
2022/04/28 08:36:50;;;;;;;1.00;1.00;;;18.00;99.90;;;;;;5072893;28;20235;-63
2022/04/28 08:39:19;;;;;;;0.70;0.70;;;18.20;99.90;;;;;;5072124;28;20337;-63
2022/04/28 08:41:47;;;;;;;0.80;0.80;;;18.20;99.90;;;;;;5072632;28;20242;-66
2022/04/28 08:44:17;;;;;;;0.60;0.60;;;18.30;99.90;;;;;;5072321;28;20774;-63
2022/04/28 08:46:54;;;;;;;0.90;0.90;;;18.50;99.90;;;;;;5072278;28;20207;-62
2022/04/28 08:49:23;;;;;;;0.77;0.77;;;18.60;99.90;;;;;;5071856;28;20665;-63
2022/04/28 08:51:52;;;;;;;0.80;0.80;;;18.70;99.90;;;;;;5072859;28;20209;-64
2022/04/28 08:54:21;;;;;;;0.70;0.70;;;18.80;99.90;;;;;;5072520;28;20226;-64
2022/04/28 08:56:50;;;;;;;0.60;0.60;;;18.90;99.90;;;;;;5072063;28;20245;-65
2022/04/28 08:59:17;;;;;;;0.90;0.90;;;19.00;99.90;;;;;;5071430;28;20349;-64
2022/04/28 09:01:44;;;;;;;0.70;0.70;;;19.20;99.90;;;;;;5072056;28;20207;-64
2022/04/28 09:04:11;;;;;;;0.80;0.80;;;19.10;99.90;;;;;;5072043;28;20219;-64
2022/04/28 09:06:39;;;;;;;0.73;0.73;;;19.00;99.90;;;;;;5071380;28;20199;-64
2022/04/28 09:09:08;;;;;;;1.00;1.00;;;19.00;99.90;;;;;;5071642;28;20239;-65
2022/04/28 09:11:39;;;;;;;0.80;0.80;;;19.10;99.90;;;;;;5072587;28;20290;-63
2022/04/28 09:14:11;;;;;;;2.00;0.83;;;19.10;99.90;;;;;;5072313;28;20227;-63
2022/04/28 09:16:40;;;;;;;0.90;0.90;;;19.10;99.30;;;;;;5072619;28;20222;-63
2022/04/28 09:19:07;;;;;;;0.70;0.70;;;19.10;99.90;;;;;;5074319;28;20241;-63
2022/04/28 09:21:35;;;;;;;2.60;0.80;;;19.30;99.90;;;;;;5072099;28;20213;-62
2022/04/28 09:24:02;;;;;;;1.00;1.00;;;19.20;99.20;;;;;;5072752;28;20230;-62
2022/04/28 09:26:30;;;;;;;0.80;0.80;;;19.40;99.40;;;;;;5072619;28;20252;-63
2022/04/28 09:29:02;;;;;;;0.90;0.90;;;19.30;98.70;;;;;;5072926;28;20348;-63
2022/04/28 09:31:30;;;;;;;0.70;0.70;;;19.40;99.80;;;;;;5073308;28;20231;-63
2022/04/28 09:34:05;;;;;;;0.80;0.80;;;19.40;98.70;;;;;;5072693;28;20744;-63
2022/04/28 09:36:32;;;;;;;0.70;0.70;;;19.60;98.50;;;;;;5072540;28;20293;-63
2022/04/28 09:38:59;;;;;;;1.00;1.00;;;19.70;99.10;;;;;;5071235;28;20203;-63
2022/04/28 09:44:12;;;;;;;0.83;0.83;;;19.70;97.10;;;;;;5071821;28;20701;-64
2022/04/28 09:46:43;;;;;;;0.80;0.80;;;19.70;97.60;;;;;;5070488;28;20203;-63
2022/04/28 09:49:11;;;;;;;0.93;0.93;;;20.00;98.10;;;;;;5070842;28;20744;-64
2022/04/28 09:51:39;;;;;;;0.73;0.73;;;20.20;98.20;;;;;;5079410;28;20204;-63
2022/04/28 09:54:10;;;;;;;0.80;0.80;;;20.40;98.70;;;;;;5064303;28;20222;-63
2022/04/28 09:56:38;;;;;;;0.80;0.80;;;20.40;97.40;;;;;;5075236;28;20203;-64
2022/04/28 09:59:08;;;;;;;0.90;0.90;;;20.30;96.90;;;;;;5090689;28;20195;-64
2022/04/28 10:01:38;;;;;;;0.70;0.70;;;20.30;96.50;;;;;;5074034;28;20281;-63
2022/04/28 10:04:06;;;;;;;0.70;0.70;;;20.30;96.10;;;;;;5082238;28;20708;-63
2022/04/28 10:06:35;;;;;;;1.33;1.10;;;20.40;96.50;;;;;;5092550;28;20202;-63
2022/04/28 10:09:05;;;;;;;0.82;0.82;;;20.50;96.70;;;;;;5091757;28;20230;-64
2022/04/28 10:11:32;;;;;;;0.80;0.80;;;20.50;96.10;;;;;;5092602;28;20209;-64
2022/04/28 10:14:00;;;;;;;0.70;0.70;;;20.50;95.60;;;;;;5074265;28;20308;-63
2022/04/28 10:16:27;;;;;;;0.70;0.70;;;20.50;95.60;;;;;;5083521;28;20288;-62
2022/04/28 10:19:02;;;;;;;0.90;0.90;;;20.60;95.30;;;;;;5089964;28;20620;-64
2022/04/28 10:21:34;;;;;;;0.80;0.80;;;20.50;94.60;;;;;;5062438;28;20220;-63
2022/04/28 10:32:57;;;;;;;0.70;0.70;;;21.00;96.00;;;;;;5065199;28;20243;-63
2022/04/28 10:35:40;;;;;;;0.80;0.80;;;21.00;95.10;;;;;;5078008;28;20214;-63
2022/04/28 10:38:15;;;;;;;1.03;0.83;;;21.00;94.80;;;;;;5074198;28;20211;-64
2022/04/28 10:40:43;;;;;;;0.80;0.70;;;21.00;94.90;;;;;;5074112;28;20222;-63
2022/04/28 10:43:25;;;;;;;0.90;0.90;;;21.10;95.70;;;;;;5074941;28;20237;-64
2022/04/28 10:45:54;;;;;;;0.68;0.68;;;21.10;95.40;;;;;;5074902;28;20243;-63
2022/04/28 10:48:26;;;;;;;0.75;0.70;;;21.10;95.60;;;;;;5074030;28;20306;-62
2022/04/28 10:51:05;;;;;;;0.80;0.80;;;21.20;95.30;;;;;;5061966;28;20204;-62
2022/04/28 10:53:32;;;;;;;0.77;0.77;;;21.20;95.50;;;;;;5069521;28;20227;-62
2022/04/28 10:56:06;;;;;;;0.90;0.90;;;21.30;95.20;;;;;;5076139;28;20213;-64
2022/04/28 10:58:33;;;;;;;0.80;0.80;;;21.30;95.80;;;;;;5081751;28;20290;-63
2022/04/28 11:01:01;;;;;;;0.85;0.85;;;21.40;96.00;;;;;;5077629;28;20367;-63
2022/04/28 11:03:46;;;;;;;0.80;0.80;;;21.50;95.60;;;;;;5084197;28;20986;-63
2022/04/28 11:06:16;;;;;;;0.80;0.80;;;21.50;95.80;;;;;;5070717;28;20684;-63
2022/04/28 11:08:48;;;;;;;2.17;1.05;;;21.60;96.10;;;;;;5081771;28;20238;-63
2022/04/28 11:11:16;;;;;;;0.80;0.80;;;21.60;95.00;;;;;;5080279;28;20257;-63
2022/04/28 11:13:48;;;;;;;0.93;0.93;;;21.80;96.60;;;;;;5072692;28;20250;-63
2022/04/28 11:16:16;;;;;;;0.80;0.80;;;21.80;95.30;;;;;;5078636;28;20195;-62
2022/04/28 11:18:44;;;;;;;0.97;0.90;;;21.80;95.30;;;;;;5091998;28;20273;-61
2022/04/28 11:21:12;;;;;;;0.80;0.80;;;21.90;94.70;;;;;;5095759;28;20287;-63
2022/04/28 11:23:44;;;;;;;0.88;0.88;;;22.00;95.00;;;;;;5095444;28;20218;-63
2022/04/28 11:26:12;;;;;;;0.90;0.90;;;22.00;94.80;;;;;;5091386;28;20203;-63
2022/04/28 11:28:39;;;;;;;0.77;0.70;;;22.10;95.70;;;;;;5081954;28;20934;-64
2022/04/28 11:31:12;;;;;;;0.80;0.80;;;22.20;96.40;;;;;;5093265;28;20203;-63
2022/04/28 11:33:45;;;;;;;0.85;0.85;;;22.20;95.10;;;;;;5094301;28;20218;-63
2022/04/28 11:36:25;;;;;;;0.80;0.80;;;22.20;95.60;;;;;;5091864;28;20214;-63
2022/04/28 11:38:57;;;;;;;0.77;0.77;;;22.30;95.30;;;;;;5092180;28;20653;-63
2022/04/28 11:41:32;;;;;;;0.70;0.70;;;22.30;94.90;;;;;;5092471;28;20627;-64
2022/04/28 11:44:01;;;;;;;0.70;0.70;;;22.40;94.80;;;;;;5092852;28;20230;-63
2022/04/28 11:46:28;;;;;;;0.80;0.80;;;22.40;93.80;;;;;;5093952;28;20217;-63
2022/04/28 11:48:55;;;;;;;0.80;0.80;;;22.40;94.00;;;;;;5095938;28;20234;-64
2022/04/28 11:51:25;;;;;;;0.88;0.88;;;22.40;93.80;;;;;;5095595;28;20238;-64
2022/04/28 11:53:54;;;;;;;0.90;0.90;;;22.50;93.70;;;;;;5079184;28;20224;-64
2022/04/28 11:56:23;;;;;;;0.70;0.70;;;22.40;92.60;;;;;;5079482;28;20199;-63
2022/04/28 11:58:52;;;;;;;0.70;0.70;;;22.60;94.00;;;;;;5084776;28;20203;-65
2022/04/28 12:01:21;;;;;;;0.60;0.60;;;22.70;93.60;;;;;;5093602;28;20666;-64
2022/04/28 12:03:50;;;;;;;0.80;0.80;;;22.80;94.60;;;;;;5094338;28;20226;-64
2022/04/28 12:06:18;;;;;;;0.80;0.80;;;22.60;94.30;;;;;;5084221;28;20221;-65
2022/04/28 12:08:54;;;;;;;0.90;0.90;;;22.60;94.50;;;;;;5071669;28;20204;-62
2022/04/28 12:14:23;;;;;;;0.75;0.75;;;22.80;95.30;;;;;;5071870;28;20276;-62
2022/04/28 12:19:49;;;;;;;0.90;0.90;;;22.90;93.90;;;;;;5071198;28;20700;-64
2022/04/28 12:22:28;;;;;;;1.00;1.00;;;22.80;93.80;;;;;;5071502;28;20219;-63
2022/04/28 12:25:02;;;;;;;1.60;0.90;;;23.00;94.30;;;;;;5072596;28;20286;-66
2022/04/28 12:27:43;;;;;;;0.70;0.70;;;23.00;93.90;;;;;;5052049;28;20211;-64
2022/04/28 12:30:12;;;;;;;0.63;0.63;;;23.10;94.20;;;;;;5070795;28;20672;-64
2022/04/28 12:32:47;;;;;;;1.05;1.05;;;23.10;93.60;;;;;;5071955;28;20712;-64
2022/04/28 12:35:26;;;;;;;0.88;0.88;;;23.20;95.00;;;;;;5072943;28;20195;-64
2022/04/28 12:37:58;;;;;;;1.15;1.00;;;23.30;94.40;;;;;;5072293;28;20202;-66
2022/04/28 12:40:28;;;;;;;0.70;0.70;;;23.20;93.30;;;;;;5071740;28;20230;-62
2022/04/28 12:42:56;;;;;;;1.60;0.90;;;23.20;93.20;;;;;;5073044;28;20223;-63
2022/04/28 12:45:45;;;;;;;0.63;0.63;;;23.20;91.70;;;;;;5084555;28;20194;-64
2022/04/28 12:48:26;;;;;;;0.90;0.90;;;23.20;92.40;;;;;;5092503;28;20692;-63
2022/04/28 12:51:26;;;;;;;0.77;0.77;;;23.20;92.30;;;;;;5080543;28;20657;-63
2022/04/28 12:53:56;;;;;;;0.80;0.80;;;23.30;93.50;;;;;;5090880;28;20227;-63
2022/04/28 12:56:31;;;;;;;0.70;0.70;;;23.30;94.00;;;;;;5089002;28;20572;-64
2022/04/28 12:58:59;;;;;;;0.70;0.70;;;23.30;93.70;;;;;;5082118;28;20202;-64
2022/04/28 13:01:27;;;;;;;0.50;0.50;;;23.30;94.10;;;;;;5097284;28;20226;-63
2022/04/28 13:03:56;;;;;;;0.80;0.80;;;23.40;94.00;;;;;;5098278;28;20291;-65
2022/04/28 13:06:24;;;;;;;0.80;0.80;;;23.30;93.50;;;;;;5101512;28;20657;-64
2022/04/28 13:08:52;;;;;;;1.10;0.90;;;23.20;93.60;;;;;;5103431;28;20270;-64
2022/04/28 13:11:21;;;;;;;0.70;0.70;;;23.20;93.50;;;;;;5098582;28;20302;-64
2022/04/28 13:13:50;;;;;;;0.88;0.80;;;23.20;93.70;;;;;;5092936;28;20321;-65
2022/04/28 13:16:17;;;;;;;1.20;1.05;;;23.30;94.10;;;;;;5092771;28;20214;-64
2022/04/28 13:18:44;;;;;;;0.88;0.88;;;23.30;92.90;;;;;;5092555;28;20193;-63
2022/04/28 13:21:12;;;;;;;0.70;0.70;;;23.30;92.00;;;;;;5092195;28;20707;-63
2022/04/28 13:23:39;;;;;;;0.90;0.90;;;23.30;92.20;;;;;;5092690;28;20671;-64
2022/04/28 13:26:07;;;;;;;0.80;0.80;;;23.40;91.40;;;;;;5082602;28;20198;-61
2022/04/28 13:28:34;;;;;;;1.23;1.00;;;23.30;91.50;;;;;;5087943;28;20692;-63
2022/04/28 13:31:03;;;;;;;0.70;0.70;;;23.40;91.70;;;;;;5096789;28;20245;-63
2022/04/28 13:33:30;;;;;;;0.85;0.85;;;23.50;92.80;;;;;;5097394;28;20263;-65
2022/04/28 13:35:57;;;;;;;0.63;0.63;;;23.50;92.10;;;;;;5096073;28;20262;-63